sensor_id;sensor_type;location;lat;lon;timestamp;temperature;humidity
75824;DHT22;64457;51.976;9.834;2023-06-22T00:00:20;23.30;96.30
75824;DHT22;64457;51.976;9.834;2023-06-22T00:02:49;23.30;96.10
75824;DHT22;64457;51.976;9.834;2023-06-22T00:05:17;23.30;96.10
75824;DHT22;64457;51.976;9.834;2023-06-22T00:07:47;23.30;96.10
75824;DHT22;64457;51.976;9.834;2023-06-22T00:10:22;22.80;97.30
75824;DHT22;64457;51.976;9.834;2023-06-22T00:12:54;22.70;97.70
75824;DHT22;64457;51.976;9.834;2023-06-22T00:15:23;22.80;97.60
75824;DHT22;64457;51.976;9.834;2023-06-22T00:17:51;22.90;97.40
75824;DHT22;64457;51.976;9.834;2023-06-22T00:20:20;23.10;97.10
75824;DHT22;64457;51.976;9.834;2023-06-22T00:22:48;23.20;96.70
75824;DHT22;64457;51.976;9.834;2023-06-22T00:25:20;23.20;96.60
75824;DHT22;64457;51.976;9.834;2023-06-22T00:27:54;23.20;96.60
75824;DHT22;64457;51.976;9.834;2023-06-22T00:30:25;23.30;96.60
75824;DHT22;64457;51.976;9.834;2023-06-22T00:32:57;23.30;96.20
75824;DHT22;64457;51.976;9.834;2023-06-22T00:35:26;23.20;96.40
75824;DHT22;64457;51.976;9.834;2023-06-22T00:37:59;23.20;96.30
75824;DHT22;64457;51.976;9.834;2023-06-22T00:40:32;23.20;96.30
75824;DHT22;64457;51.976;9.834;2023-06-22T00:43:09;23.10;96.00
75824;DHT22;64457;51.976;9.834;2023-06-22T00:45:38;23.00;96.30
75824;DHT22;64457;51.976;9.834;2023-06-22T00:48:10;22.90;96.60
75824;DHT22;64457;51.976;9.834;2023-06-22T00:50:44;22.80;96.70
75824;DHT22;64457;51.976;9.834;2023-06-22T00:53:17;22.80;96.80
75824;DHT22;64457;51.976;9.834;2023-06-22T00:55:47;22.80;96.90
75824;DHT22;64457;51.976;9.834;2023-06-22T00:58:23;22.80;96.70
75824;DHT22;64457;51.976;9.834;2023-06-22T01:00:55;22.90;96.80
75824;DHT22;64457;51.976;9.834;2023-06-22T01:03:23;22.90;96.70
75824;DHT22;64457;51.976;9.834;2023-06-22T01:05:58;22.80;96.80
75824;DHT22;64457;51.976;9.834;2023-06-22T01:08:40;22.80;96.60
75824;DHT22;64457;51.976;9.834;2023-06-22T01:11:17;22.90;96.60
75824;DHT22;64457;51.976;9.834;2023-06-22T01:13:57;22.90;96.50
75824;DHT22;64457;51.976;9.834;2023-06-22T01:16:33;22.90;97.10
75824;DHT22;64457;51.976;9.834;2023-06-22T01:19:19;22.80;97.10
75824;DHT22;64457;51.976;9.834;2023-06-22T01:21:55;22.80;97.10
75824;DHT22;64457;51.976;9.834;2023-06-22T01:24:27;22.90;97.10
75824;DHT22;64457;51.976;9.834;2023-06-22T01:30:00;22.80;97.40
75824;DHT22;64457;51.976;9.834;2023-06-22T01:32:32;22.60;97.90
75824;DHT22;64457;51.976;9.834;2023-06-22T01:35:04;22.60;97.70
75824;DHT22;64457;51.976;9.834;2023-06-22T01:37:49;22.80;97.70
75824;DHT22;64457;51.976;9.834;2023-06-22T01:40:18;22.90;97.20
75824;DHT22;64457;51.976;9.834;2023-06-22T01:42:48;23.00;96.90
75824;DHT22;64457;51.976;9.834;2023-06-22T01:45:18;23.00;96.90
75824;DHT22;64457;51.976;9.834;2023-06-22T01:47:47;22.80;97.60
75824;DHT22;64457;51.976;9.834;2023-06-22T01:50:17;22.20;98.80
75824;DHT22;64457;51.976;9.834;2023-06-22T01:52:46;22.10;99.40
75824;DHT22;64457;51.976;9.834;2023-06-22T01:55:15;22.20;99.00
75824;DHT22;64457;51.976;9.834;2023-06-22T01:57:44;22.50;98.50
75824;DHT22;64457;51.976;9.834;2023-06-22T02:00:14;22.50;98.60
75824;DHT22;64457;51.976;9.834;2023-06-22T02:02:55;22.60;98.10
75824;DHT22;64457;51.976;9.834;2023-06-22T02:05:30;22.70;97.80
75824;DHT22;64457;51.976;9.834;2023-06-22T02:08:09;22.90;97.70
75824;DHT22;64457;51.976;9.834;2023-06-22T02:10:41;22.90;97.30
75824;DHT22;64457;51.976;9.834;2023-06-22T02:13:11;23.00;97.20
75824;DHT22;64457;51.976;9.834;2023-06-22T02:15:42;23.00;97.20
75824;DHT22;64457;51.976;9.834;2023-06-22T02:18:11;23.20;97.20
75824;DHT22;64457;51.976;9.834;2023-06-22T02:20:39;23.10;96.70
75824;DHT22;64457;51.976;9.834;2023-06-22T02:23:08;23.10;96.70
75824;DHT22;64457;51.976;9.834;2023-06-22T02:25:36;23.00;96.60
75824;DHT22;64457;51.976;9.834;2023-06-22T02:28:04;23.00;96.60
75824;DHT22;64457;51.976;9.834;2023-06-22T02:30:32;23.00;96.60
75824;DHT22;64457;51.976;9.834;2023-06-22T02:33:01;23.00;96.60
75824;DHT22;64457;51.976;9.834;2023-06-22T02:35:29;23.00;96.50
75824;DHT22;64457;51.976;9.834;2023-06-22T02:37:57;23.00;96.50
75824;DHT22;64457;51.976;9.834;2023-06-22T02:40:26;22.90;96.50
75824;DHT22;64457;51.976;9.834;2023-06-22T02:42:56;22.90;96.40
75824;DHT22;64457;51.976;9.834;2023-06-22T02:45:27;22.80;96.50
75824;DHT22;64457;51.976;9.834;2023-06-22T02:47:56;22.80;96.70
75824;DHT22;64457;51.976;9.834;2023-06-22T02:50:30;22.90;97.00
75824;DHT22;64457;51.976;9.834;2023-06-22T02:52:58;22.90;96.80
75824;DHT22;64457;51.976;9.834;2023-06-22T02:55:26;22.90;96.70
75824;DHT22;64457;51.976;9.834;2023-06-22T02:57:54;22.90;96.70
75824;DHT22;64457;51.976;9.834;2023-06-22T03:00:23;22.90;96.50
75824;DHT22;64457;51.976;9.834;2023-06-22T03:02:56;23.00;96.70
75824;DHT22;64457;51.976;9.834;2023-06-22T03:05:26;23.00;96.50
75824;DHT22;64457;51.976;9.834;2023-06-22T03:07:54;22.90;96.10
75824;DHT22;64457;51.976;9.834;2023-06-22T03:10:22;22.90;96.30
75824;DHT22;64457;51.976;9.834;2023-06-22T03:12:50;22.90;96.50
75824;DHT22;64457;51.976;9.834;2023-06-22T03:15:21;22.90;96.70
75824;DHT22;64457;51.976;9.834;2023-06-22T03:18:00;23.00;96.70
75824;DHT22;64457;51.976;9.834;2023-06-22T03:20:36;23.10;96.40
75824;DHT22;64457;51.976;9.834;2023-06-22T03:23:06;23.20;96.30
75824;DHT22;64457;51.976;9.834;2023-06-22T03:25:34;23.20;96.50
75824;DHT22;64457;51.976;9.834;2023-06-22T03:28:03;23.20;96.50
75824;DHT22;64457;51.976;9.834;2023-06-22T03:30:31;23.20;96.20
75824;DHT22;64457;51.976;9.834;2023-06-22T03:32:59;23.30;95.90
75824;DHT22;64457;51.976;9.834;2023-06-22T03:35:26;23.30;96.20
75824;DHT22;64457;51.976;9.834;2023-06-22T03:37:56;23.20;96.30
75824;DHT22;64457;51.976;9.834;2023-06-22T03:40:23;23.20;96.40
75824;DHT22;64457;51.976;9.834;2023-06-22T03:42:51;23.20;96.50
75824;DHT22;64457;51.976;9.834;2023-06-22T03:45:19;23.10;96.60
75824;DHT22;64457;51.976;9.834;2023-06-22T03:47:47;23.20;96.70
75824;DHT22;64457;51.976;9.834;2023-06-22T03:50:15;23.20;96.30
75824;DHT22;64457;51.976;9.834;2023-06-22T03:52:43;23.30;96.30
75824;DHT22;64457;51.976;9.834;2023-06-22T03:55:13;23.30;96.30
75824;DHT22;64457;51.976;9.834;2023-06-22T03:57:40;23.40;96.20
75824;DHT22;64457;51.976;9.834;2023-06-22T04:00:11;23.40;96.00
75824;DHT22;64457;51.976;9.834;2023-06-22T04:02:41;23.50;96.00
75824;DHT22;64457;51.976;9.834;2023-06-22T04:05:09;23.40;96.00
75824;DHT22;64457;51.976;9.834;2023-06-22T04:07:37;23.30;96.30
75824;DHT22;64457;51.976;9.834;2023-06-22T04:10:06;23.30;96.20
75824;DHT22;64457;51.976;9.834;2023-06-22T04:12:35;23.30;95.80
75824;DHT22;64457;51.976;9.834;2023-06-22T04:15:05;23.40;95.90
75824;DHT22;64457;51.976;9.834;2023-06-22T04:17:33;23.50;96.00
75824;DHT22;64457;51.976;9.834;2023-06-22T04:20:01;23.50;96.00
75824;DHT22;64457;51.976;9.834;2023-06-22T04:22:31;23.50;96.10
75824;DHT22;64457;51.976;9.834;2023-06-22T04:24:58;23.60;96.10
75824;DHT22;64457;51.976;9.834;2023-06-22T04:27:26;23.60;95.90
75824;DHT22;64457;51.976;9.834;2023-06-22T04:29:56;23.60;95.60
75824;DHT22;64457;51.976;9.834;2023-06-22T04:32:26;23.60;95.30
75824;DHT22;64457;51.976;9.834;2023-06-22T04:34:54;23.70;95.40
75824;DHT22;64457;51.976;9.834;2023-06-22T04:37:22;23.70;95.30
75824;DHT22;64457;51.976;9.834;2023-06-22T04:39:50;23.30;96.10
75824;DHT22;64457;51.976;9.834;2023-06-22T04:42:19;22.80;97.10
75824;DHT22;64457;51.976;9.834;2023-06-22T04:44:46;22.00;98.60
75824;DHT22;64457;51.976;9.834;2023-06-22T04:47:20;21.90;99.30
75824;DHT22;64457;51.976;9.834;2023-06-22T04:49:48;22.30;99.00
75824;DHT22;64457;51.976;9.834;2023-06-22T04:52:16;22.80;98.30
75824;DHT22;64457;51.976;9.834;2023-06-22T04:54:46;23.10;97.10
75824;DHT22;64457;51.976;9.834;2023-06-22T04:57:21;23.30;96.90
75824;DHT22;64457;51.976;9.834;2023-06-22T04:59:58;23.40;96.40
75824;DHT22;64457;51.976;9.834;2023-06-22T05:02:39;23.50;96.20
75824;DHT22;64457;51.976;9.834;2023-06-22T05:05:07;23.50;96.20
75824;DHT22;64457;51.976;9.834;2023-06-22T05:07:40;23.50;96.00
75824;DHT22;64457;51.976;9.834;2023-06-22T05:10:10;23.50;96.40
75824;DHT22;64457;51.976;9.834;2023-06-22T05:12:39;23.60;95.90
75824;DHT22;64457;51.976;9.834;2023-06-22T05:15:08;23.70;96.00
75824;DHT22;64457;51.976;9.834;2023-06-22T05:17:38;23.70;95.90
75824;DHT22;64457;51.976;9.834;2023-06-22T05:20:09;23.80;95.90
75824;DHT22;64457;51.976;9.834;2023-06-22T05:22:40;23.80;95.80
75824;DHT22;64457;51.976;9.834;2023-06-22T05:25:10;23.80;96.10
75824;DHT22;64457;51.976;9.834;2023-06-22T05:27:38;23.90;95.90
75824;DHT22;64457;51.976;9.834;2023-06-22T05:30:10;23.90;96.00
75824;DHT22;64457;51.976;9.834;2023-06-22T05:32:44;23.80;96.20
75824;DHT22;64457;51.976;9.834;2023-06-22T05:35:12;23.80;96.10
75824;DHT22;64457;51.976;9.834;2023-06-22T05:37:40;23.90;96.30
75824;DHT22;64457;51.976;9.834;2023-06-22T05:40:09;24.00;96.30
75824;DHT22;64457;51.976;9.834;2023-06-22T05:42:37;23.90;96.50
75824;DHT22;64457;51.976;9.834;2023-06-22T05:45:06;23.90;96.30
75824;DHT22;64457;51.976;9.834;2023-06-22T05:47:34;24.00;96.10
75824;DHT22;64457;51.976;9.834;2023-06-22T05:50:05;24.00;96.50
75824;DHT22;64457;51.976;9.834;2023-06-22T05:52:37;24.00;96.40
75824;DHT22;64457;51.976;9.834;2023-06-22T05:55:06;24.00;96.90
75824;DHT22;64457;51.976;9.834;2023-06-22T05:57:34;23.90;97.10
75824;DHT22;64457;51.976;9.834;2023-06-22T06:00:03;24.00;97.10
75824;DHT22;64457;51.976;9.834;2023-06-22T06:02:36;24.00;97.00
75824;DHT22;64457;51.976;9.834;2023-06-22T06:05:11;24.10;97.10
75824;DHT22;64457;51.976;9.834;2023-06-22T06:07:41;24.20;96.50
75824;DHT22;64457;51.976;9.834;2023-06-22T06:10:10;24.20;96.10
75824;DHT22;64457;51.976;9.834;2023-06-22T06:12:38;24.10;96.30
75824;DHT22;64457;51.976;9.834;2023-06-22T06:15:09;24.20;96.60
75824;DHT22;64457;51.976;9.834;2023-06-22T06:17:45;24.30;96.60
75824;DHT22;64457;51.976;9.834;2023-06-22T06:20:17;24.30;96.80
75824;DHT22;64457;51.976;9.834;2023-06-22T06:22:46;24.20;97.10
75824;DHT22;64457;51.976;9.834;2023-06-22T06:25:14;24.00;97.60
75824;DHT22;64457;51.976;9.834;2023-06-22T06:27:46;24.10;97.00
75824;DHT22;64457;51.976;9.834;2023-06-22T06:30:15;24.20;96.90
75824;DHT22;64457;51.976;9.834;2023-06-22T06:32:44;24.40;96.50
75824;DHT22;64457;51.976;9.834;2023-06-22T06:35:15;24.60;96.00
75824;DHT22;64457;51.976;9.834;2023-06-22T06:37:45;24.70;95.70
75824;DHT22;64457;51.976;9.834;2023-06-22T06:40:15;24.60;96.30
75824;DHT22;64457;51.976;9.834;2023-06-22T06:42:47;24.30;97.00
75824;DHT22;64457;51.976;9.834;2023-06-22T06:45:18;24.20;97.10
75824;DHT22;64457;51.976;9.834;2023-06-22T06:47:49;24.20;97.00
75824;DHT22;64457;51.976;9.834;2023-06-22T06:50:19;24.30;96.80
75824;DHT22;64457;51.976;9.834;2023-06-22T06:52:47;24.10;97.80
75824;DHT22;64457;51.976;9.834;2023-06-22T06:55:15;23.80;98.40
75824;DHT22;64457;51.976;9.834;2023-06-22T06:57:45;23.50;98.70
75824;DHT22;64457;51.976;9.834;2023-06-22T07:00:16;23.30;99.10
75824;DHT22;64457;51.976;9.834;2023-06-22T07:02:46;23.30;99.40
75824;DHT22;64457;51.976;9.834;2023-06-22T07:05:14;23.30;99.50
75824;DHT22;64457;51.976;9.834;2023-06-22T07:07:44;23.50;99.90
75824;DHT22;64457;51.976;9.834;2023-06-22T07:10:13;24.20;99.30
75824;DHT22;64457;51.976;9.834;2023-06-22T07:12:42;24.80;97.80
75824;DHT22;64457;51.976;9.834;2023-06-22T07:15:18;25.50;97.00
75824;DHT22;64457;51.976;9.834;2023-06-22T07:17:50;25.90;95.50
75824;DHT22;64457;51.976;9.834;2023-06-22T07:20:22;26.20;95.00
75824;DHT22;64457;51.976;9.834;2023-06-22T07:22:56;26.30;94.90
75824;DHT22;64457;51.976;9.834;2023-06-22T07:25:25;26.40;94.50
75824;DHT22;64457;51.976;9.834;2023-06-22T07:27:58;26.30;94.50
75824;DHT22;64457;51.976;9.834;2023-06-22T07:30:27;26.10;94.50
75824;DHT22;64457;51.976;9.834;2023-06-22T07:32:56;26.10;94.40
75824;DHT22;64457;51.976;9.834;2023-06-22T07:35:24;26.20;94.50
75824;DHT22;64457;51.976;9.834;2023-06-22T07:37:52;26.30;93.90
75824;DHT22;64457;51.976;9.834;2023-06-22T07:40:22;26.30;94.00
75824;DHT22;64457;51.976;9.834;2023-06-22T07:42:50;26.40;93.80
75824;DHT22;64457;51.976;9.834;2023-06-22T07:45:19;26.40;93.30
75824;DHT22;64457;51.976;9.834;2023-06-22T07:47:48;26.40;93.40
75824;DHT22;64457;51.976;9.834;2023-06-22T07:50:16;26.40;93.40
75824;DHT22;64457;51.976;9.834;2023-06-22T07:52:45;26.40;93.40
75824;DHT22;64457;51.976;9.834;2023-06-22T07:55:13;26.50;93.10
75824;DHT22;64457;51.976;9.834;2023-06-22T07:57:46;26.50;92.70
75824;DHT22;64457;51.976;9.834;2023-06-22T08:00:15;26.50;93.20
75824;DHT22;64457;51.976;9.834;2023-06-22T08:02:46;26.50;92.80
75824;DHT22;64457;51.976;9.834;2023-06-22T08:05:14;26.50;93.20
75824;DHT22;64457;51.976;9.834;2023-06-22T08:07:43;26.60;92.80
75824;DHT22;64457;51.976;9.834;2023-06-22T08:10:12;26.60;92.60
75824;DHT22;64457;51.976;9.834;2023-06-22T08:12:40;26.70;92.70
75824;DHT22;64457;51.976;9.834;2023-06-22T08:15:11;26.60;92.50
75824;DHT22;64457;51.976;9.834;2023-06-22T08:17:40;26.70;92.60
75824;DHT22;64457;51.976;9.834;2023-06-22T08:20:09;26.80;92.40
75824;DHT22;64457;51.976;9.834;2023-06-22T08:22:39;26.70;92.30
75824;DHT22;64457;51.976;9.834;2023-06-22T08:25:08;26.80;92.30
75824;DHT22;64457;51.976;9.834;2023-06-22T08:27:37;26.80;92.40
75824;DHT22;64457;51.976;9.834;2023-06-22T08:30:06;26.80;92.30
75824;DHT22;64457;51.976;9.834;2023-06-22T08:32:38;26.80;92.20
75824;DHT22;64457;51.976;9.834;2023-06-22T08:35:07;26.90;92.30
75824;DHT22;64457;51.976;9.834;2023-06-22T08:37:36;26.90;92.00
75824;DHT22;64457;51.976;9.834;2023-06-22T08:40:07;26.70;92.10
75824;DHT22;64457;51.976;9.834;2023-06-22T08:42:36;26.60;92.40
75824;DHT22;64457;51.976;9.834;2023-06-22T08:45:06;26.60;92.40
75824;DHT22;64457;51.976;9.834;2023-06-22T08:47:38;26.60;92.10
75824;DHT22;64457;51.976;9.834;2023-06-22T08:50:08;26.70;92.50
75824;DHT22;64457;51.976;9.834;2023-06-22T08:52:36;26.80;92.60
75824;DHT22;64457;51.976;9.834;2023-06-22T08:55:07;27.00;92.80
75824;DHT22;64457;51.976;9.834;2023-06-22T08:57:36;27.20;92.40
75824;DHT22;64457;51.976;9.834;2023-06-22T09:00:06;27.30;92.40
75824;DHT22;64457;51.976;9.834;2023-06-22T09:02:44;27.40;92.10
75824;DHT22;64457;51.976;9.834;2023-06-22T09:05:13;27.70;91.90
75824;DHT22;64457;51.976;9.834;2023-06-22T09:07:42;28.40;91.10
75824;DHT22;64457;51.976;9.834;2023-06-22T09:10:10;29.00;88.90
75824;DHT22;64457;51.976;9.834;2023-06-22T09:12:39;29.10;88.40
75824;DHT22;64457;51.976;9.834;2023-06-22T09:15:10;29.10;88.60
75824;DHT22;64457;51.976;9.834;2023-06-22T09:17:40;28.50;89.40
75824;DHT22;64457;51.976;9.834;2023-06-22T09:20:09;28.30;90.20
75824;DHT22;64457;51.976;9.834;2023-06-22T09:22:38;28.10;90.40
75824;DHT22;64457;51.976;9.834;2023-06-22T09:25:07;28.00;90.90
75824;DHT22;64457;51.976;9.834;2023-06-22T09:27:35;27.90;91.70
75824;DHT22;64457;51.976;9.834;2023-06-22T09:30:04;28.50;91.40
75824;DHT22;64457;51.976;9.834;2023-06-22T09:32:35;29.00;90.00
75824;DHT22;64457;51.976;9.834;2023-06-22T09:35:06;29.50;88.40
75824;DHT22;64457;51.976;9.834;2023-06-22T09:37:37;29.90;87.30
75824;DHT22;64457;51.976;9.834;2023-06-22T09:40:07;30.00;85.80
75824;DHT22;64457;51.976;9.834;2023-06-22T09:42:38;30.20;84.60
75824;DHT22;64457;51.976;9.834;2023-06-22T09:45:10;30.30;84.10
75824;DHT22;64457;51.976;9.834;2023-06-22T09:47:42;30.50;82.30
75824;DHT22;64457;51.976;9.834;2023-06-22T09:50:10;30.70;81.90
75824;DHT22;64457;51.976;9.834;2023-06-22T09:52:38;30.80;81.40
75824;DHT22;64457;51.976;9.834;2023-06-22T09:55:10;30.80;81.50
75824;DHT22;64457;51.976;9.834;2023-06-22T09:57:38;31.10;81.30
75824;DHT22;64457;51.976;9.834;2023-06-22T10:00:07;31.70;78.60
75824;DHT22;64457;51.976;9.834;2023-06-22T10:02:40;31.80;78.00
75824;DHT22;64457;51.976;9.834;2023-06-22T10:05:09;31.80;79.20
75824;DHT22;64457;51.976;9.834;2023-06-22T10:07:37;31.80;78.90
75824;DHT22;64457;51.976;9.834;2023-06-22T10:10:09;32.10;76.60
75824;DHT22;64457;51.976;9.834;2023-06-22T10:12:42;32.50;76.20
75824;DHT22;64457;51.976;9.834;2023-06-22T10:15:12;32.80;75.10
75824;DHT22;64457;51.976;9.834;2023-06-22T10:17:47;33.00;74.40
75824;DHT22;64457;51.976;9.834;2023-06-22T10:20:15;33.30;74.50
75824;DHT22;64457;51.976;9.834;2023-06-22T10:22:44;33.20;72.00
75824;DHT22;64457;51.976;9.834;2023-06-22T10:25:13;33.10;74.10
75824;DHT22;64457;51.976;9.834;2023-06-22T10:27:48;32.70;75.00
75824;DHT22;64457;51.976;9.834;2023-06-22T10:30:16;32.30;75.60
75824;DHT22;64457;51.976;9.834;2023-06-22T10:32:48;32.40;76.90
75824;DHT22;64457;51.976;9.834;2023-06-22T10:35:19;32.20;77.30
75824;DHT22;64457;51.976;9.834;2023-06-22T10:37:48;32.30;76.50
75824;DHT22;64457;51.976;9.834;2023-06-22T10:40:17;32.10;77.00
75824;DHT22;64457;51.976;9.834;2023-06-22T10:42:46;31.80;78.40
75824;DHT22;64457;51.976;9.834;2023-06-22T10:45:14;32.00;79.20
75824;DHT22;64457;51.976;9.834;2023-06-22T10:47:43;32.10;79.00
75824;DHT22;64457;51.976;9.834;2023-06-22T10:50:12;32.10;79.00
75824;DHT22;64457;51.976;9.834;2023-06-22T10:52:44;31.80;80.20
75824;DHT22;64457;51.976;9.834;2023-06-22T10:55:12;31.70;79.70
75824;DHT22;64457;51.976;9.834;2023-06-22T10:58:06;31.70;79.50
75824;DHT22;64457;51.976;9.834;2023-06-22T11:00:59;31.80;79.40
75824;DHT22;64457;51.976;9.834;2023-06-22T11:03:29;32.00;78.90
75824;DHT22;64457;51.976;9.834;2023-06-22T11:05:58;32.00;77.60
75824;DHT22;64457;51.976;9.834;2023-06-22T11:08:26;32.30;77.90
75824;DHT22;64457;51.976;9.834;2023-06-22T11:10:54;32.80;75.60
75824;DHT22;64457;51.976;9.834;2023-06-22T11:13:23;33.30;74.10
75824;DHT22;64457;51.976;9.834;2023-06-22T11:15:51;33.20;72.30
75824;DHT22;64457;51.976;9.834;2023-06-22T11:18:18;33.00;72.50
75824;DHT22;64457;51.976;9.834;2023-06-22T11:20:46;33.00;71.80
75824;DHT22;64457;51.976;9.834;2023-06-22T11:23:17;33.70;71.40
75824;DHT22;64457;51.976;9.834;2023-06-22T11:25:45;33.70;72.20
75824;DHT22;64457;51.976;9.834;2023-06-22T11:28:13;33.50;67.50
75824;DHT22;64457;51.976;9.834;2023-06-22T11:30:42;33.10;70.10
75824;DHT22;64457;51.976;9.834;2023-06-22T11:33:09;33.10;69.90
75824;DHT22;64457;51.976;9.834;2023-06-22T11:35:38;33.40;68.60
75824;DHT22;64457;51.976;9.834;2023-06-22T11:38:06;32.80;70.40
75824;DHT22;64457;51.976;9.834;2023-06-22T11:40:35;32.50;71.50
75824;DHT22;64457;51.976;9.834;2023-06-22T11:43:06;32.30;71.40
75824;DHT22;64457;51.976;9.834;2023-06-22T11:45:36;32.20;73.20
75824;DHT22;64457;51.976;9.834;2023-06-22T11:48:05;32.10;73.10
75824;DHT22;64457;51.976;9.834;2023-06-22T11:50:35;32.30;72.60
75824;DHT22;64457;51.976;9.834;2023-06-22T11:53:06;32.50;72.10
75824;DHT22;64457;51.976;9.834;2023-06-22T11:55:36;32.90;72.60
75824;DHT22;64457;51.976;9.834;2023-06-22T11:58:06;33.30;69.80
75824;DHT22;64457;51.976;9.834;2023-06-22T12:00:35;33.50;70.00
75824;DHT22;64457;51.976;9.834;2023-06-22T12:03:03;33.20;67.00
75824;DHT22;64457;51.976;9.834;2023-06-22T12:05:33;32.90;69.90
75824;DHT22;64457;51.976;9.834;2023-06-22T12:08:01;32.70;73.20
75824;DHT22;64457;51.976;9.834;2023-06-22T12:10:29;33.20;70.70
75824;DHT22;64457;51.976;9.834;2023-06-22T12:12:59;32.80;69.00
75824;DHT22;64457;51.976;9.834;2023-06-22T12:15:28;32.60;71.20
75824;DHT22;64457;51.976;9.834;2023-06-22T12:17:59;32.20;71.90
75824;DHT22;64457;51.976;9.834;2023-06-22T12:20:28;32.50;73.60
75824;DHT22;64457;51.976;9.834;2023-06-22T12:22:58;32.50;70.90
75824;DHT22;64457;51.976;9.834;2023-06-22T12:25:26;32.40;72.10
75824;DHT22;64457;51.976;9.834;2023-06-22T12:27:54;32.80;73.80
75824;DHT22;64457;51.976;9.834;2023-06-22T12:30:24;33.50;72.30
75824;DHT22;64457;51.976;9.834;2023-06-22T12:32:53;34.10;70.20
75824;DHT22;64457;51.976;9.834;2023-06-22T12:35:21;34.40;69.40
75824;DHT22;64457;51.976;9.834;2023-06-22T12:37:49;34.30;68.70
75824;DHT22;64457;51.976;9.834;2023-06-22T12:40:17;34.20;68.40
75824;DHT22;64457;51.976;9.834;2023-06-22T12:42:46;33.50;69.30
75824;DHT22;64457;51.976;9.834;2023-06-22T12:45:15;33.00;71.20
75824;DHT22;64457;51.976;9.834;2023-06-22T12:47:46;32.20;73.50
75824;DHT22;64457;51.976;9.834;2023-06-22T12:50:15;32.20;73.80
75824;DHT22;64457;51.976;9.834;2023-06-22T12:52:45;32.20;73.20
75824;DHT22;64457;51.976;9.834;2023-06-22T12:55:14;32.30;71.80
75824;DHT22;64457;51.976;9.834;2023-06-22T12:57:41;32.00;71.70
75824;DHT22;64457;51.976;9.834;2023-06-22T13:00:10;32.20;73.50
75824;DHT22;64457;51.976;9.834;2023-06-22T13:02:39;32.20;72.70
75824;DHT22;64457;51.976;9.834;2023-06-22T13:05:10;32.40;72.90
75824;DHT22;64457;51.976;9.834;2023-06-22T13:07:40;32.50;70.90
75824;DHT22;64457;51.976;9.834;2023-06-22T13:10:09;32.40;71.90
75824;DHT22;64457;51.976;9.834;2023-06-22T13:12:37;32.50;71.10
75824;DHT22;64457;51.976;9.834;2023-06-22T13:15:06;32.30;71.40
75824;DHT22;64457;51.976;9.834;2023-06-22T13:17:35;32.30;72.10
75824;DHT22;64457;51.976;9.834;2023-06-22T13:20:03;32.30;70.60
75824;DHT22;64457;51.976;9.834;2023-06-22T13:22:34;32.30;72.60
75824;DHT22;64457;51.976;9.834;2023-06-22T13:25:07;32.40;71.30
75824;DHT22;64457;51.976;9.834;2023-06-22T13:27:38;32.60;72.10
75824;DHT22;64457;51.976;9.834;2023-06-22T13:30:07;32.50;70.90
75824;DHT22;64457;51.976;9.834;2023-06-22T13:32:35;32.60;72.40
75824;DHT22;64457;51.976;9.834;2023-06-22T13:35:03;32.60;74.20
75824;DHT22;64457;51.976;9.834;2023-06-22T13:37:40;32.50;74.70
75824;DHT22;64457;51.976;9.834;2023-06-22T13:40:09;32.10;76.50
75824;DHT22;64457;51.976;9.834;2023-06-22T13:42:37;31.90;75.20
75824;DHT22;64457;51.976;9.834;2023-06-22T13:45:07;32.00;75.10
75824;DHT22;64457;51.976;9.834;2023-06-22T13:47:40;31.90;75.50
75824;DHT22;64457;51.976;9.834;2023-06-22T13:50:09;32.00;75.20
75824;DHT22;64457;51.976;9.834;2023-06-22T13:52:40;32.00;74.90
75824;DHT22;64457;51.976;9.834;2023-06-22T13:55:09;32.00;75.40
75824;DHT22;64457;51.976;9.834;2023-06-22T13:57:37;32.00;76.80
75824;DHT22;64457;51.976;9.834;2023-06-22T14:00:06;32.20;76.40
75824;DHT22;64457;51.976;9.834;2023-06-22T14:02:35;32.10;77.20
75824;DHT22;64457;51.976;9.834;2023-06-22T14:05:03;32.30;78.00
75824;DHT22;64457;51.976;9.834;2023-06-22T14:07:31;32.20;77.00
75824;DHT22;64457;51.976;9.834;2023-06-22T14:10:01;32.00;77.90
75824;DHT22;64457;51.976;9.834;2023-06-22T14:12:30;32.00;78.30
75824;DHT22;64457;51.976;9.834;2023-06-22T14:15:08;32.00;77.90
75824;DHT22;64457;51.976;9.834;2023-06-22T14:17:43;32.20;77.10
75824;DHT22;64457;51.976;9.834;2023-06-22T14:20:12;32.30;74.90
75824;DHT22;64457;51.976;9.834;2023-06-22T14:22:41;31.50;77.10
75824;DHT22;64457;51.976;9.834;2023-06-22T14:25:11;31.20;79.50
75824;DHT22;64457;51.976;9.834;2023-06-22T14:27:44;31.30;79.10
75824;DHT22;64457;51.976;9.834;2023-06-22T14:30:14;31.50;79.60
75824;DHT22;64457;51.976;9.834;2023-06-22T14:32:43;31.70;77.30
75824;DHT22;64457;51.976;9.834;2023-06-22T14:35:12;31.70;77.20
75824;DHT22;64457;51.976;9.834;2023-06-22T14:37:42;31.50;76.30
75824;DHT22;64457;51.976;9.834;2023-06-22T14:40:14;31.40;76.90
75824;DHT22;64457;51.976;9.834;2023-06-22T14:42:43;31.30;78.10
75824;DHT22;64457;51.976;9.834;2023-06-22T14:45:13;31.50;77.40
75824;DHT22;64457;51.976;9.834;2023-06-22T14:47:47;31.40;77.20
75824;DHT22;64457;51.976;9.834;2023-06-22T14:50:23;31.50;76.80
75824;DHT22;64457;51.976;9.834;2023-06-22T14:53:01;31.40;76.30
75824;DHT22;64457;51.976;9.834;2023-06-22T14:55:36;31.00;77.10
75824;DHT22;64457;51.976;9.834;2023-06-22T14:58:06;30.80;77.40
75824;DHT22;64457;51.976;9.834;2023-06-22T15:00:39;30.80;78.00
75824;DHT22;64457;51.976;9.834;2023-06-22T15:03:07;30.80;77.40
75824;DHT22;64457;51.976;9.834;2023-06-22T15:05:45;30.60;78.20
75824;DHT22;64457;51.976;9.834;2023-06-22T15:08:16;30.50;78.40
75824;DHT22;64457;51.976;9.834;2023-06-22T15:10:47;30.30;79.10
75824;DHT22;64457;51.976;9.834;2023-06-22T15:13:16;30.20;79.20
75824;DHT22;64457;51.976;9.834;2023-06-22T15:15:56;30.30;79.50
75824;DHT22;64457;51.976;9.834;2023-06-22T15:18:32;30.20;81.10
75824;DHT22;64457;51.976;9.834;2023-06-22T15:21:02;30.00;82.20
75824;DHT22;64457;51.976;9.834;2023-06-22T15:23:37;29.70;83.90
75824;DHT22;64457;51.976;9.834;2023-06-22T15:26:07;29.50;83.70
75824;DHT22;64457;51.976;9.834;2023-06-22T15:28:40;29.20;85.00
75824;DHT22;64457;51.976;9.834;2023-06-22T15:31:12;28.60;87.40
75824;DHT22;64457;51.976;9.834;2023-06-22T15:33:43;28.20;88.40
75824;DHT22;64457;51.976;9.834;2023-06-22T15:36:14;27.80;90.10
75824;DHT22;64457;51.976;9.834;2023-06-22T15:38:43;27.60;91.10
75824;DHT22;64457;51.976;9.834;2023-06-22T15:41:16;27.60;91.60
75824;DHT22;64457;51.976;9.834;2023-06-22T15:43:45;27.70;91.80
75824;DHT22;64457;51.976;9.834;2023-06-22T15:46:13;27.60;92.30
75824;DHT22;64457;51.976;9.834;2023-06-22T15:48:44;27.30;93.30
75824;DHT22;64457;51.976;9.834;2023-06-22T15:51:16;26.70;94.90